createdAt,value
2023-05-05T00:00:56.181Z,4.91
2023-05-05T00:03:23.288Z,4.95
2023-05-05T00:05:50.702Z,4.86
2023-05-05T00:08:18.042Z,4.82
2023-05-05T00:10:48.030Z,4.77
2023-05-05T00:13:14.745Z,4.80
2023-05-05T00:15:42.449Z,4.81
2023-05-05T00:18:09.165Z,4.80
2023-05-05T00:20:35.856Z,4.72
2023-05-05T00:23:02.736Z,4.66
2023-05-05T00:25:29.389Z,4.58
2023-05-05T00:27:56.180Z,4.41
2023-05-05T00:30:22.925Z,4.25
2023-05-05T00:32:49.678Z,4.16
2023-05-05T00:35:16.547Z,4.13
2023-05-05T00:37:43.482Z,4.11
2023-05-05T00:40:10.519Z,4.14
2023-05-05T00:42:40.262Z,4.23
2023-05-05T00:45:06.883Z,4.23
2023-05-05T00:47:33.412Z,4.28
2023-05-05T00:49:59.863Z,4.25
2023-05-05T00:52:26.523Z,4.19
2023-05-05T00:54:53.635Z,4.11
2023-05-05T00:57:20.521Z,3.93
2023-05-05T00:59:48.684Z,3.84
2023-05-05T01:02:15.142Z,3.81
2023-05-05T01:04:41.524Z,3.84
2023-05-05T01:07:13.893Z,3.94
2023-05-05T01:09:43.326Z,3.97
2023-05-05T01:12:36.159Z,4.08
2023-05-05T01:15:05.412Z,4.15
2023-05-05T01:17:45.894Z,4.13
2023-05-05T01:20:23.929Z,4.14
2023-05-05T01:22:59.696Z,4.23
2023-05-05T01:25:44.827Z,4.12
2023-05-05T01:28:24.155Z,4.14
2023-05-05T01:31:00.133Z,4.12
2023-05-05T01:33:28.906Z,4.15
2023-05-05T01:35:57.426Z,4.18
2023-05-05T01:38:32.423Z,4.09
2023-05-05T01:41:19.263Z,3.96
2023-05-05T01:43:47.142Z,3.77
2023-05-05T01:46:15.166Z,3.65
2023-05-05T01:48:42.629Z,3.60
2023-05-05T01:51:10.488Z,3.52
2023-05-05T01:53:37.569Z,3.49
2023-05-05T01:56:04.456Z,3.38
2023-05-05T01:58:32.849Z,3.20
2023-05-05T02:01:00.421Z,3.11
2023-05-05T02:03:27.638Z,3.12
2023-05-05T02:05:55.310Z,3.14
2023-05-05T02:08:22.315Z,3.03
2023-05-05T02:10:49.860Z,2.92
2023-05-05T02:13:18.220Z,2.79
2023-05-05T02:15:44.955Z,2.72
2023-05-05T02:18:11.620Z,2.71
2023-05-05T02:20:39.557Z,2.72
2023-05-05T02:23:07.986Z,2.64
2023-05-05T02:25:43.287Z,2.60
2023-05-05T02:28:13.137Z,2.62
2023-05-05T02:30:40.464Z,2.59
2023-05-05T02:33:09.245Z,2.58
2023-05-05T02:35:37.899Z,2.63
2023-05-05T02:38:05.656Z,2.57
2023-05-05T02:40:33.932Z,2.55
2023-05-05T02:43:03.643Z,2.61
2023-05-05T02:45:30.216Z,2.61
2023-05-05T02:47:56.766Z,2.68
2023-05-05T02:50:23.252Z,2.54
2023-05-05T02:52:49.668Z,2.61
2023-05-05T02:55:16.577Z,2.72
2023-05-05T02:57:42.976Z,2.74
2023-05-05T03:00:09.778Z,2.75
2023-05-05T03:02:43.413Z,2.77
2023-05-05T03:05:11.223Z,2.90
2023-05-05T03:07:52.999Z,3.12
2023-05-05T03:10:21.326Z,3.26
2023-05-05T03:12:55.350Z,3.26
2023-05-05T03:15:32.156Z,3.29
2023-05-05T03:17:59.664Z,3.37
2023-05-05T03:20:26.298Z,3.49
2023-05-05T03:22:52.919Z,3.58
2023-05-05T03:25:19.405Z,3.66
2023-05-05T03:27:45.843Z,3.35
2023-05-05T03:30:12.502Z,3.02
2023-05-05T03:32:38.965Z,2.77
2023-05-05T03:35:05.644Z,2.65
2023-05-05T03:37:32.088Z,2.80
2023-05-05T03:39:58.541Z,2.98
2023-05-05T03:42:25.185Z,3.08
2023-05-05T03:44:53.842Z,3.14
2023-05-05T03:47:20.424Z,3.23
2023-05-05T03:49:46.802Z,3.38
2023-05-05T03:52:14.936Z,3.40
2023-05-05T03:54:42.554Z,3.48
2023-05-05T03:57:08.996Z,3.55
2023-05-05T03:59:35.426Z,3.52
2023-05-05T04:02:01.833Z,3.53
2023-05-05T04:04:28.371Z,3.52
2023-05-05T04:06:54.940Z,3.48
2023-05-05T04:09:21.371Z,3.40
2023-05-05T04:11:47.829Z,3.43
2023-05-05T04:14:14.258Z,3.43
2023-05-05T04:16:40.778Z,3.46
2023-05-05T04:19:08.381Z,3.50
2023-05-05T04:21:35.311Z,3.59
2023-05-05T04:24:01.732Z,3.66
2023-05-05T04:26:28.200Z,3.72
2023-05-05T04:28:56.443Z,3.79
2023-05-05T04:31:22.909Z,3.77
2023-05-05T04:33:49.333Z,3.78
2023-05-05T04:36:15.875Z,3.77
2023-05-05T04:38:42.313Z,3.79
2023-05-05T04:41:08.702Z,3.84
2023-05-05T04:43:35.123Z,3.92
2023-05-05T04:46:01.899Z,4.04
2023-05-05T04:48:28.364Z,4.13
2023-05-05T04:50:54.847Z,4.26
2023-05-05T04:53:21.283Z,4.46
2023-05-05T04:55:47.800Z,4.65
2023-05-05T04:58:14.210Z,4.71
2023-05-05T05:00:40.751Z,4.92
2023-05-05T05:03:08.259Z,4.94
2023-05-05T05:05:34.770Z,5.04
2023-05-05T05:08:01.208Z,5.14
2023-05-05T05:10:28.461Z,5.26
2023-05-05T05:12:54.900Z,5.32
2023-05-05T05:15:21.496Z,5.50
2023-05-05T05:17:47.943Z,5.65
2023-05-05T05:20:14.425Z,5.80
2023-05-05T05:22:42.193Z,5.76
2023-05-05T05:25:08.813Z,5.92
2023-05-05T05:27:35.239Z,6.00
2023-05-05T05:30:01.982Z,6.13
2023-05-05T05:32:29.044Z,6.20
2023-05-05T05:34:55.630Z,6.28
2023-05-05T05:37:22.072Z,6.29
2023-05-05T05:39:52.230Z,6.41
2023-05-05T05:42:18.842Z,6.70
2023-05-05T05:44:45.327Z,6.93
2023-05-05T05:47:11.759Z,7.21
2023-05-05T05:49:38.167Z,7.37
2023-05-05T05:52:04.682Z,7.52
2023-05-05T05:54:32.725Z,7.72
2023-05-05T05:56:59.141Z,7.81
2023-05-05T05:59:25.694Z,7.90
2023-05-05T06:01:52.083Z,8.07
2023-05-05T06:04:18.589Z,8.21
2023-05-05T06:06:45.074Z,8.22
2023-05-05T06:09:11.615Z,8.23
2023-05-05T06:11:38.058Z,8.43
2023-05-05T06:14:04.612Z,8.56
2023-05-05T06:16:31.146Z,8.72
2023-05-05T06:18:57.624Z,8.83
2023-05-05T06:21:24.155Z,9.01
2023-05-05T06:23:50.934Z,9.33
2023-05-05T06:26:17.458Z,9.49
2023-05-05T06:28:43.956Z,9.73
2023-05-05T06:31:12.824Z,9.79
2023-05-05T06:33:39.304Z,9.86
2023-05-05T06:36:05.871Z,10.05
2023-05-05T06:38:32.368Z,10.20
2023-05-05T06:40:58.782Z,10.36
2023-05-05T06:43:25.342Z,10.59
2023-05-05T06:45:52.052Z,10.69
2023-05-05T06:48:18.653Z,10.65
2023-05-05T06:50:45.166Z,10.76
2023-05-05T06:53:11.579Z,10.86
2023-05-05T06:55:38.037Z,10.87
2023-05-05T06:58:04.482Z,10.99
2023-05-05T07:00:30.960Z,10.92
2023-05-05T07:02:57.464Z,11.08
2023-05-05T07:05:24.097Z,11.22
2023-05-05T07:07:53.960Z,11.29
2023-05-05T07:10:21.479Z,11.33
2023-05-05T07:12:48.163Z,11.44
2023-05-05T07:15:26.763Z,11.75
2023-05-05T07:17:54.963Z,11.57
2023-05-05T07:20:21.448Z,11.74
2023-05-05T07:22:47.970Z,11.82
2023-05-05T07:25:14.377Z,11.94
2023-05-05T07:27:40.782Z,12.23
2023-05-05T07:30:12.420Z,12.20
2023-05-05T07:32:41.275Z,12.29
2023-05-05T07:35:07.837Z,12.53
2023-05-05T07:37:34.324Z,12.57
2023-05-05T07:40:00.988Z,12.46
2023-05-05T07:42:27.464Z,12.68
2023-05-05T07:44:53.928Z,12.94
2023-05-05T07:47:20.926Z,13.11
2023-05-05T07:49:47.358Z,13.26
2023-05-05T07:52:14.036Z,13.24
2023-05-05T07:54:41.287Z,13.28
2023-05-05T07:57:07.858Z,13.31
2023-05-05T07:59:34.735Z,13.33
2023-05-05T08:02:01.525Z,13.44
2023-05-05T08:04:28.035Z,13.74
2023-05-05T08:06:54.520Z,14.01
2023-05-05T08:09:20.969Z,14.14
2023-05-05T08:11:47.441Z,14.10
2023-05-05T08:14:15.148Z,14.13
2023-05-05T08:16:41.745Z,14.33
2023-05-05T08:19:17.860Z,14.23
2023-05-05T08:21:51.775Z,14.18
2023-05-05T08:24:18.448Z,14.23
2023-05-05T08:26:44.881Z,14.24
2023-05-05T08:29:11.435Z,14.38
2023-05-05T08:31:38.098Z,14.36
2023-05-05T08:36:39.756Z,14.41
2023-05-05T08:39:07.128Z,14.53
2023-05-05T08:41:33.938Z,14.50
2023-05-05T08:44:00.745Z,14.49
2023-05-05T08:46:28.178Z,14.66
2023-05-05T08:48:55.464Z,14.91
2023-05-05T08:51:22.077Z,15.01
2023-05-05T08:53:54.748Z,15.04
2023-05-05T08:56:24.455Z,15.32
2023-05-05T08:58:51.376Z,15.13
2023-05-05T09:01:18.304Z,14.55
2023-05-05T09:03:46.195Z,14.81
2023-05-05T09:06:12.832Z,15.01
2023-05-05T09:08:39.596Z,15.06
2023-05-05T09:11:06.246Z,15.38
2023-05-05T09:13:32.712Z,15.57
2023-05-05T09:15:59.685Z,15.93
2023-05-05T09:18:26.298Z,15.99
2023-05-05T09:20:52.739Z,15.73
2023-05-05T09:23:20.203Z,15.66
2023-05-05T09:25:47.554Z,15.45
2023-05-05T09:28:15.019Z,15.32
2023-05-05T09:30:42.352Z,15.38
2023-05-05T09:33:09.325Z,15.87
2023-05-05T09:35:52.258Z,16.03
2023-05-05T09:38:19.234Z,16.21
2023-05-05T09:40:47.458Z,16.27
2023-05-05T09:43:14.059Z,16.39
2023-05-05T09:45:40.482Z,16.69
2023-05-05T09:48:07.051Z,16.58
2023-05-05T09:50:44.083Z,16.57
2023-05-05T09:53:10.936Z,16.57
2023-05-05T09:55:38.126Z,16.48
2023-05-05T09:58:17.455Z,16.41
2023-05-05T10:00:43.933Z,16.36
2023-05-05T10:03:10.674Z,16.21
2023-05-05T10:05:57.475Z,16.09
2023-05-05T10:08:25.901Z,16.65
2023-05-05T10:10:56.436Z,16.40
2023-05-05T10:13:23.876Z,16.78
2023-05-05T10:15:51.828Z,16.89
2023-05-05T10:18:20.470Z,16.99
2023-05-05T10:20:48.380Z,16.95
2023-05-05T10:23:18.766Z,17.27
2023-05-05T10:25:55.737Z,17.32
2023-05-05T10:28:51.676Z,17.45
2023-05-05T10:31:26.592Z,17.38
2023-05-05T10:33:55.282Z,17.18
2023-05-05T10:36:23.440Z,16.86
2023-05-05T10:38:50.816Z,17.10
2023-05-05T10:41:18.483Z,17.45
2023-05-05T10:43:45.990Z,17.16
2023-05-05T10:46:12.840Z,16.76
2023-05-05T10:48:42.656Z,16.65
2023-05-05T10:51:14.152Z,16.86
2023-05-05T10:53:54.113Z,17.03
2023-05-05T10:56:28.335Z,17.35
2023-05-05T10:59:00.113Z,17.58
2023-05-05T11:01:37.086Z,17.76
2023-05-05T11:04:22.754Z,17.93
2023-05-05T11:07:07.855Z,18.13
2023-05-05T11:09:41.990Z,18.50
2023-05-05T11:12:08.773Z,18.52
2023-05-05T11:14:35.483Z,18.14
2023-05-05T11:17:02.072Z,18.54
2023-05-05T11:19:44.300Z,18.65
2023-05-05T11:22:13.617Z,18.79
2023-05-05T11:24:40.682Z,18.97
2023-05-05T11:27:07.132Z,18.98
2023-05-05T11:29:53.084Z,18.98
2023-05-05T11:32:20.024Z,18.70
2023-05-05T11:34:50.103Z,18.43
2023-05-05T11:37:17.199Z,18.71
2023-05-05T11:40:07.229Z,18.86
2023-05-05T11:42:33.977Z,18.91
2023-05-05T11:45:00.626Z,18.85
2023-05-05T11:47:28.233Z,18.19
2023-05-05T11:49:55.652Z,18.15
2023-05-05T11:52:24.022Z,18.64
2023-05-05T11:54:50.887Z,19.09
2023-05-05T11:57:21.110Z,19.21
2023-05-05T12:02:36.902Z,19.37
2023-05-05T12:07:38.870Z,19.82
2023-05-05T12:10:06.966Z,19.85
2023-05-05T12:12:35.222Z,19.98
2023-05-05T12:15:01.731Z,19.79
2023-05-05T12:17:35.829Z,19.25
2023-05-05T12:20:02.333Z,19.03
2023-05-05T12:22:28.749Z,18.94
2023-05-05T12:24:56.276Z,19.15
2023-05-05T12:27:23.600Z,19.45
2023-05-05T12:29:51.808Z,19.73
2023-05-05T12:32:23.063Z,19.90
2023-05-05T12:34:50.987Z,19.85
2023-05-05T12:37:19.339Z,19.49
2023-05-05T12:39:46.026Z,19.49
2023-05-05T12:42:12.529Z,19.82
2023-05-05T12:44:39.854Z,19.69
2023-05-05T12:47:06.988Z,19.64
2023-05-05T12:49:49.529Z,19.65
2023-05-05T12:52:16.493Z,19.53
2023-05-05T12:54:55.936Z,19.17
2023-05-05T12:57:22.586Z,18.81
2023-05-05T12:59:49.440Z,19.19
2023-05-05T13:02:16.474Z,19.58
2023-05-05T13:04:53.121Z,19.89
2023-05-05T13:07:20.501Z,19.78
2023-05-05T13:09:48.329Z,19.10
2023-05-05T13:12:15.529Z,18.75
2023-05-05T13:14:42.380Z,18.89
2023-05-05T13:17:09.223Z,19.17
2023-05-05T13:19:41.629Z,19.60
2023-05-05T13:22:10.329Z,19.77
2023-05-05T13:24:49.924Z,19.76
2023-05-05T13:27:19.033Z,20.00
2023-05-05T13:29:46.049Z,20.04
2023-05-05T13:32:12.561Z,20.06
2023-05-05T13:34:39.340Z,19.88
2023-05-05T13:37:06.232Z,19.69
2023-05-05T13:39:32.808Z,19.64
2023-05-05T13:41:59.272Z,19.85
2023-05-05T13:44:25.679Z,19.87
2023-05-05T13:46:52.192Z,19.91
2023-05-05T13:49:18.703Z,20.06
2023-05-05T13:51:47.181Z,20.11
2023-05-05T13:54:13.867Z,19.93
2023-05-05T13:56:40.955Z,19.86
2023-05-05T13:59:07.689Z,19.86
2023-05-05T14:01:34.208Z,19.69
2023-05-05T14:04:03.646Z,19.44
2023-05-05T14:06:32.507Z,19.45
2023-05-05T14:08:58.988Z,19.64
2023-05-05T14:11:25.396Z,20.04
2023-05-05T14:13:52.055Z,20.34
2023-05-05T14:16:18.695Z,20.45
2023-05-05T14:18:45.663Z,20.42
2023-05-05T14:21:12.202Z,19.78
2023-05-05T14:23:38.691Z,19.71
2023-05-05T14:26:05.401Z,19.74
2023-05-05T14:28:31.901Z,20.18
2023-05-05T14:30:58.383Z,20.43
2023-05-05T14:33:24.840Z,20.40
2023-05-05T14:35:51.559Z,20.49
2023-05-05T14:38:18.073Z,20.48
2023-05-05T14:40:44.704Z,20.50
2023-05-05T14:43:11.250Z,20.54
2023-05-05T14:45:37.965Z,20.48
2023-05-05T14:48:04.523Z,20.30
2023-05-05T14:50:30.998Z,20.47
2023-05-05T14:52:57.434Z,20.66
2023-05-05T14:55:25.062Z,20.29
2023-05-05T14:57:51.986Z,19.93
2023-05-05T15:00:18.582Z,19.77
2023-05-05T15:02:45.131Z,19.98
2023-05-05T15:05:11.790Z,20.36
2023-05-05T15:07:38.363Z,20.41
2023-05-05T15:10:05.141Z,20.31
2023-05-05T15:12:31.731Z,20.12
2023-05-05T15:14:58.175Z,20.32
2023-05-05T15:17:24.819Z,20.57
2023-05-05T15:19:51.429Z,20.51
2023-05-05T15:22:17.892Z,20.26
2023-05-05T15:24:44.319Z,20.07
2023-05-05T15:27:10.768Z,20.18
2023-05-05T15:29:37.221Z,20.10
2023-05-05T15:32:03.833Z,20.16
2023-05-05T15:34:31.354Z,20.30
2023-05-05T15:36:57.978Z,20.44
2023-05-05T15:39:24.612Z,20.51
2023-05-05T15:41:51.185Z,20.62
2023-05-05T15:44:17.652Z,20.70
2023-05-05T15:46:45.480Z,20.78
2023-05-05T15:49:12.221Z,20.58
2023-05-05T15:51:38.684Z,20.38
2023-05-05T15:54:05.501Z,20.30
2023-05-05T15:56:32.340Z,20.40
2023-05-05T15:58:58.824Z,20.35
2023-05-05T16:01:25.311Z,20.37
2023-05-05T16:03:51.867Z,20.38
2023-05-05T16:06:18.369Z,20.38
2023-05-05T16:08:47.661Z,20.19
2023-05-05T16:11:14.071Z,19.91
2023-05-05T16:13:40.624Z,19.84
2023-05-05T16:16:07.113Z,19.84
2023-05-05T16:18:33.784Z,19.75
2023-05-05T16:21:00.195Z,19.74
2023-05-05T16:23:26.634Z,19.76
2023-05-05T16:25:53.074Z,19.64
2023-05-05T16:28:19.712Z,19.68
2023-05-05T16:30:46.205Z,19.77
2023-05-05T16:33:12.578Z,19.69
2023-05-05T16:35:38.978Z,19.52
2023-05-05T16:38:05.417Z,19.29
2023-05-05T16:40:31.861Z,19.12
2023-05-05T16:42:58.292Z,18.84
2023-05-05T16:45:24.806Z,18.64
2023-05-05T16:47:51.367Z,18.49
2023-05-05T16:50:17.887Z,18.36
2023-05-05T16:52:44.323Z,18.20
2023-05-05T16:55:10.994Z,18.23
2023-05-05T16:57:37.627Z,18.23
2023-05-05T17:00:05.048Z,18.15
2023-05-05T17:02:31.509Z,18.06
2023-05-05T17:04:58.058Z,18.00
2023-05-05T17:07:24.556Z,17.98
2023-05-05T17:09:51.086Z,17.80
2023-05-05T17:12:17.585Z,17.71
2023-05-05T17:14:45.411Z,17.49
2023-05-05T17:17:11.981Z,17.12
2023-05-05T17:19:38.489Z,16.85
2023-05-05T17:22:04.985Z,16.77
2023-05-05T17:24:31.500Z,16.63
2023-05-05T17:26:58.367Z,16.53
2023-05-05T17:29:24.886Z,16.34
2023-05-05T17:31:51.726Z,16.10
2023-05-05T17:34:18.174Z,15.88
2023-05-05T17:36:44.643Z,15.71
2023-05-05T17:39:11.478Z,15.53
2023-05-05T17:41:37.997Z,15.36
2023-05-05T17:44:04.547Z,15.24
2023-05-05T17:46:30.958Z,15.08
2023-05-05T17:48:57.481Z,14.92
2023-05-05T17:51:23.982Z,14.78
2023-05-05T17:53:50.398Z,14.54
2023-05-05T17:56:17.163Z,14.38
2023-05-05T17:58:43.579Z,14.24
2023-05-05T18:01:13.550Z,14.13
2023-05-05T18:03:41.010Z,14.01
2023-05-05T18:06:07.746Z,13.90
2023-05-05T18:08:34.168Z,13.78
2023-05-05T18:11:01.841Z,13.71
2023-05-05T18:13:28.320Z,13.59
2023-05-05T18:15:54.764Z,13.49
2023-05-05T18:18:21.315Z,13.43
2023-05-05T18:20:47.820Z,13.38
2023-05-05T18:23:14.328Z,13.39
2023-05-05T18:25:41.524Z,13.33
2023-05-05T18:28:07.980Z,13.29
2023-05-05T18:30:35.670Z,13.19
2023-05-05T18:33:02.253Z,13.13
2023-05-05T18:35:29.048Z,13.07
2023-05-05T18:37:55.929Z,13.03
2023-05-05T18:40:22.445Z,13.00
2023-05-05T18:42:48.992Z,12.88
2023-05-05T18:45:15.600Z,12.82
2023-05-05T18:47:42.096Z,12.78
2023-05-05T18:50:09.972Z,12.71
2023-05-05T18:52:36.440Z,12.64
2023-05-05T18:55:03.020Z,12.58
2023-05-05T18:57:29.823Z,12.53
2023-05-05T18:59:56.490Z,12.45
2023-05-05T19:02:23.090Z,12.38
2023-05-05T19:04:49.569Z,12.36
2023-05-05T19:07:27.518Z,12.39
2023-05-05T19:09:58.028Z,12.35
2023-05-05T19:12:24.462Z,12.33
2023-05-05T19:14:50.919Z,12.40
2023-05-05T19:17:17.331Z,12.42
2023-05-05T19:19:43.771Z,12.32
2023-05-05T19:22:10.352Z,12.30
2023-05-05T19:24:36.901Z,12.31
2023-05-05T19:27:03.432Z,12.35
2023-05-05T19:29:32.082Z,12.37
2023-05-05T19:31:58.584Z,12.27
2023-05-05T19:34:25.042Z,12.21
2023-05-05T19:36:51.503Z,12.14
2023-05-05T19:39:17.953Z,12.04
2023-05-05T19:41:44.625Z,11.96
2023-05-05T19:44:11.070Z,11.90
2023-05-05T19:46:37.628Z,11.85
2023-05-05T19:49:04.200Z,11.80
2023-05-05T19:51:31.555Z,11.82
2023-05-05T19:53:59.456Z,11.83
2023-05-05T19:56:26.029Z,11.82
2023-05-05T19:58:52.650Z,11.75
2023-05-05T20:01:19.113Z,11.67
2023-05-05T20:03:46.200Z,11.62
2023-05-05T20:06:12.823Z,11.56
2023-05-05T20:08:39.278Z,11.35
2023-05-05T20:11:05.703Z,11.19
2023-05-05T20:13:34.306Z,11.12
2023-05-05T20:16:01.087Z,11.16
2023-05-05T20:18:27.637Z,11.16
2023-05-05T20:20:54.114Z,11.18
2023-05-05T20:23:20.881Z,11.18
2023-05-05T20:25:47.338Z,11.19
2023-05-05T20:28:13.734Z,11.18
2023-05-05T20:30:40.196Z,11.07
2023-05-05T20:33:06.633Z,11.08
2023-05-05T20:35:33.040Z,11.02
2023-05-05T20:37:59.484Z,11.04
2023-05-05T20:40:26.146Z,11.07
2023-05-05T20:42:52.584Z,11.02
2023-05-05T20:45:19.029Z,10.98
2023-05-05T20:47:45.493Z,10.98
2023-05-05T20:50:12.158Z,10.95
2023-05-05T20:52:38.753Z,10.87
2023-05-05T20:55:05.451Z,10.91
2023-05-05T20:57:31.968Z,10.89
2023-05-05T20:59:58.521Z,10.87
2023-05-05T21:02:25.172Z,10.92
2023-05-05T21:04:51.623Z,10.98
2023-05-05T21:07:18.068Z,10.98
2023-05-05T21:09:47.755Z,11.02
2023-05-05T21:12:14.164Z,11.02
2023-05-05T21:14:44.765Z,10.96
2023-05-05T21:17:11.217Z,10.90
2023-05-05T21:19:37.587Z,10.86
2023-05-05T21:22:04.491Z,10.86
2023-05-05T21:24:31.153Z,10.83
2023-05-05T21:26:57.621Z,10.81
2023-05-05T21:29:26.942Z,10.83
2023-05-05T21:31:53.414Z,10.80
2023-05-05T21:34:20.247Z,10.75
2023-05-05T21:36:46.692Z,10.71
2023-05-05T21:39:13.151Z,10.76
2023-05-05T21:41:39.564Z,10.74
2023-05-05T21:44:05.977Z,10.71
2023-05-05T21:46:32.411Z,10.64
2023-05-05T21:48:58.913Z,10.68
2023-05-05T21:51:25.529Z,10.60
2023-05-05T21:53:51.947Z,10.50
2023-05-05T21:56:18.367Z,10.45
2023-05-05T21:58:44.796Z,10.44
2023-05-05T22:01:11.966Z,10.37
2023-05-05T22:03:38.702Z,10.22
2023-05-05T22:06:05.432Z,10.19
2023-05-05T22:08:31.881Z,10.17
2023-05-05T22:10:58.294Z,10.10
2023-05-05T22:13:24.740Z,10.12
2023-05-05T22:15:51.340Z,10.02
2023-05-05T22:18:17.785Z,10.01
2023-05-05T22:20:44.304Z,9.90
2023-05-05T22:23:10.738Z,9.76
2023-05-05T22:25:37.180Z,9.71
2023-05-05T22:28:03.804Z,9.61
2023-05-05T22:30:30.285Z,9.56
2023-05-05T22:32:56.829Z,9.54
2023-05-05T22:35:23.282Z,9.53
2023-05-05T22:37:49.692Z,9.56
2023-05-05T22:40:16.207Z,9.52
2023-05-05T22:42:42.728Z,9.43
2023-05-05T22:45:09.650Z,9.41
2023-05-05T22:47:36.663Z,9.42
2023-05-05T22:50:03.247Z,9.33
2023-05-05T22:52:29.677Z,9.37
2023-05-05T22:54:56.348Z,9.40
2023-05-05T22:57:22.772Z,9.46
2023-05-05T22:59:49.678Z,9.56
2023-05-05T23:02:16.212Z,9.59
2023-05-05T23:04:45.507Z,9.62
2023-05-05T23:07:12.671Z,9.54
2023-05-05T23:09:39.195Z,9.53
2023-05-05T23:12:05.758Z,9.45
2023-05-05T23:14:32.230Z,9.44
2023-05-05T23:16:58.885Z,9.38
2023-05-05T23:19:25.489Z,9.15
2023-05-05T23:21:53.565Z,9.06
2023-05-05T23:24:20.668Z,8.99
2023-05-05T23:26:47.095Z,9.07
2023-05-05T23:29:13.524Z,9.23
2023-05-05T23:31:39.945Z,9.29
2023-05-05T23:34:06.371Z,9.36
2023-05-05T23:36:32.844Z,9.39
2023-05-05T23:38:59.337Z,9.44
2023-05-05T23:41:25.802Z,9.48
2023-05-05T23:43:52.176Z,9.41
2023-05-05T23:46:18.617Z,9.38
2023-05-05T23:48:45.103Z,9.46
2023-05-05T23:51:11.517Z,9.43
2023-05-05T23:53:37.931Z,9.45
2023-05-05T23:56:04.532Z,9.49
2023-05-05T23:58:31.063Z,9.45
